Time;durP1;ratioP1;P1;durP2;ratioP2;P2;SDS_P1;SDS_P2;PMS_P1;PMS_P2;Temp;Humidity;BMP_temperature;BMP_pressure;BME280_temperature;BME280_humidity;BME280_pressure;Samples;Min_cycle;Max_cycle;Signal;HPM_P1;HPM_P2
2021/09/06 00:01:56;;;;;;;5.82;3.70;;;;;;;;;;5054448;28;20525;-56
2021/09/06 00:04:22;;;;;;;13.70;2.33;;;;;;;;;;5053340;28;20020;-54
2021/09/06 00:06:47;;;;;;;4.88;3.35;;;;;;;;;;5051424;28;20385;-55
2021/09/06 00:09:12;;;;;;;5.47;3.30;;;;;;;;;;5051818;28;20043;-55
2021/09/06 00:11:37;;;;;;;4.70;3.17;;;;;;;;;;5052485;28;20024;-54
2021/09/06 00:14:03;;;;;;;5.90;3.55;;;;;;;;;;5054072;28;20842;-55
2021/09/06 00:16:28;;;;;;;9.68;3.65;;;;;;;;;;5052460;28;20047;-54
2021/09/06 00:18:53;;;;;;;4.30;2.92;;;;;;;;;;5051664;28;20491;-54
2021/09/06 00:21:19;;;;;;;6.85;3.53;;;;;;;;;;5054701;28;20056;-55
2021/09/06 00:23:44;;;;;;;6.43;3.20;;;;;;;;;;5049584;28;20051;-53
2021/09/06 00:26:09;;;;;;;3.50;2.50;;;;;;;;;;5050069;28;20025;-55
2021/09/06 00:28:35;;;;;;;4.65;2.70;;;;;;;;;;5050944;28;20115;-55
2021/09/06 00:31:00;;;;;;;5.45;3.10;;;;;;;;;;5051626;28;20048;-55
2021/09/06 00:33:27;;;;;;;10.68;4.13;;;;;;;;;;5052685;28;20028;-54
2021/09/06 00:35:52;;;;;;;7.63;3.05;;;;;;;;;;5053281;28;20480;-54
2021/09/06 00:38:19;;;;;;;9.57;2.85;;;;;;;;;;5056463;28;20063;-54
2021/09/06 00:40:45;;;;;;;4.03;3.53;;;;;;;;;;5047258;28;20425;-53
2021/09/06 00:43:11;;;;;;;3.50;2.80;;;;;;;;;;5050252;28;20103;-54
2021/09/06 00:45:37;;;;;;;8.65;2.80;;;;;;;;;;5053601;28;20492;-54
2021/09/06 00:48:02;;;;;;;8.50;3.90;;;;;;;;;;5053082;28;20043;-55
2021/09/06 00:50:28;;;;;;;6.25;4.45;;;;;;;;;;5051825;28;20020;-54
2021/09/06 00:52:53;;;;;;;7.78;4.70;;;;;;;;;;5053908;28;20040;-53
2021/09/06 00:55:18;;;;;;;8.85;4.03;;;;;;;;;;5053398;28;20387;-55
2021/09/06 00:57:44;;;;;;;6.63;3.88;;;;;;;;;;5055496;28;20499;-55
2021/09/06 01:00:10;;;;;;;10.82;4.05;;;;;;;;;;5054995;28;20033;-55
2021/09/06 01:02:35;;;;;;;4.55;2.92;;;;;;;;;;5051998;28;20021;-55
2021/09/06 01:05:01;;;;;;;4.07;2.65;;;;;;;;;;5053329;28;20389;-55
2021/09/06 01:07:26;;;;;;;5.60;3.08;;;;;;;;;;5051936;28;20032;-55
2021/09/06 01:09:51;;;;;;;3.55;1.92;;;;;;;;;;5050092;28;20055;-55
2021/09/06 01:12:17;;;;;;;7.25;3.05;;;;;;;;;;5053495;28;20028;-55
2021/09/06 01:14:42;;;;;;;10.95;2.40;;;;;;;;;;5051258;28;20024;-55
2021/09/06 01:17:08;;;;;;;4.72;3.45;;;;;;;;;;5053679;28;20008;-55
2021/09/06 01:19:34;;;;;;;3.67;2.72;;;;;;;;;;5055397;28;20036;-54
2021/09/06 01:21:59;;;;;;;6.72;2.38;;;;;;;;;;5055984;28;20022;-54
2021/09/06 01:24:24;;;;;;;6.97;3.40;;;;;;;;;;5053916;28;20024;-55
2021/09/06 01:26:50;;;;;;;3.97;3.47;;;;;;;;;;5048650;28;20101;-55
2021/09/06 01:29:15;;;;;;;2.78;2.38;;;;;;;;;;5050885;28;20158;-55
2021/09/06 01:31:41;;;;;;;3.92;2.50;;;;;;;;;;5054223;28;20195;-56
2021/09/06 01:34:06;;;;;;;3.78;3.13;;;;;;;;;;5051320;28;20124;-55
2021/09/06 01:36:32;;;;;;;4.35;3.05;;;;;;;;;;5049268;28;20107;-53
2021/09/06 01:38:57;;;;;;;7.45;4.50;;;;;;;;;;5049740;28;20021;-54
2021/09/06 01:41:22;;;;;;;4.20;2.80;;;;;;;;;;5051354;28;20514;-55
2021/09/06 01:43:48;;;;;;;4.07;3.15;;;;;;;;;;5055766;28;20468;-55
2021/09/06 01:46:13;;;;;;;4.80;3.33;;;;;;;;;;5051967;28;20502;-55
2021/09/06 01:48:38;;;;;;;3.42;2.85;;;;;;;;;;5052470;28;20022;-55
2021/09/06 01:51:04;;;;;;;9.18;2.88;;;;;;;;;;5060956;28;20585;-56
2021/09/06 01:53:29;;;;;;;5.85;3.53;;;;;;;;;;5054870;28;20020;-55
2021/09/06 01:55:54;;;;;;;3.50;2.95;;;;;;;;;;5052289;28;20035;-54
2021/09/06 01:58:20;;;;;;;4.63;2.85;;;;;;;;;;5051779;28;20028;-54
2021/09/06 02:00:45;;;;;;;6.15;3.38;;;;;;;;;;5058887;28;20032;-55
2021/09/06 02:03:11;;;;;;;3.42;2.65;;;;;;;;;;5053275;28;20021;-56
2021/09/06 02:05:36;;;;;;;6.43;3.22;;;;;;;;;;5056763;28;20360;-55
2021/09/06 02:08:01;;;;;;;6.53;3.45;;;;;;;;;;5057753;28;20468;-55
2021/09/06 02:10:27;;;;;;;6.72;3.70;;;;;;;;;;5052912;28;20017;-55
2021/09/06 02:12:52;;;;;;;6.10;3.72;;;;;;;;;;5052495;28;20103;-54
2021/09/06 02:15:17;;;;;;;4.30;3.50;;;;;;;;;;5058067;28;20013;-55
2021/09/06 02:17:42;;;;;;;4.80;3.45;;;;;;;;;;5057721;28;20033;-55
2021/09/06 02:20:08;;;;;;;5.63;3.33;;;;;;;;;;5055558;28;20029;-55
2021/09/06 02:22:33;;;;;;;10.27;3.83;;;;;;;;;;5049776;28;20021;-55
2021/09/06 02:24:59;;;;;;;5.35;2.47;;;;;;;;;;5053321;28;20063;-55
2021/09/06 02:27:24;;;;;;;4.30;3.08;;;;;;;;;;5055011;28;20248;-54
2021/09/06 02:29:49;;;;;;;4.18;3.28;;;;;;;;;;5054406;28;20020;-54
2021/09/06 02:32:14;;;;;;;3.85;2.75;;;;;;;;;;5055435;28;20040;-52
2021/09/06 02:34:40;;;;;;;5.30;3.38;;;;;;;;;;5056126;28;20139;-55
2021/09/06 02:37:05;;;;;;;3.53;2.92;;;;;;;;;;5055747;28;20071;-54
2021/09/06 02:39:30;;;;;;;6.25;3.83;;;;;;;;;;5055292;28;20088;-55
2021/09/06 02:41:58;;;;;;;3.03;2.30;;;;;;;;;;5053711;28;20064;-55
2021/09/06 02:44:24;;;;;;;2.95;2.03;;;;;;;;;;5057449;28;20731;-55
2021/09/06 02:46:50;;;;;;;4.47;3.95;;;;;;;;;;5052218;28;20036;-55
2021/09/06 02:49:15;;;;;;;3.28;2.97;;;;;;;;;;5052985;28;20020;-55
2021/09/06 02:51:40;;;;;;;3.85;3.33;;;;;;;;;;5044540;28;20021;-55
2021/09/06 02:54:05;;;;;;;9.40;2.83;;;;;;;;;;5054818;28;20068;-56
2021/09/06 02:56:31;;;;;;;4.20;2.85;;;;;;;;;;5054332;28;20020;-56
2021/09/06 02:58:56;;;;;;;4.05;3.33;;;;;;;;;;5057221;28;20025;-56
2021/09/06 03:01:21;;;;;;;6.25;3.42;;;;;;;;;;5056558;28;20378;-53
2021/09/06 03:03:47;;;;;;;9.30;3.10;;;;;;;;;;5056073;28;20020;-54
2021/09/06 03:06:12;;;;;;;11.13;4.68;;;;;;;;;;5054251;28;20017;-56
2021/09/06 03:08:37;;;;;;;8.30;3.80;;;;;;;;;;5054852;28;20017;-56
2021/09/06 03:11:02;;;;;;;6.95;4.03;;;;;;;;;;5053879;28;20021;-55
2021/09/06 03:13:29;;;;;;;6.10;4.25;;;;;;;;;;5054953;28;20055;-54
2021/09/06 03:15:54;;;;;;;6.88;3.38;;;;;;;;;;5054000;28;20534;-55
2021/09/06 03:18:20;;;;;;;9.55;3.65;;;;;;;;;;5051061;28;20049;-56
2021/09/06 03:20:45;;;;;;;6.88;2.75;;;;;;;;;;5056909;28;20107;-56
2021/09/06 03:23:10;;;;;;;5.93;4.00;;;;;;;;;;5054973;28;20025;-56
2021/09/06 03:25:36;;;;;;;9.13;3.92;;;;;;;;;;5055919;28;20472;-55
2021/09/06 03:28:01;;;;;;;4.95;4.47;;;;;;;;;;5057187;28;20488;-54
2021/09/06 03:30:26;;;;;;;4.53;3.60;;;;;;;;;;5054337;28;20032;-55
2021/09/06 03:32:52;;;;;;;4.18;3.15;;;;;;;;;;5048888;28;20354;-56
2021/09/06 03:35:17;;;;;;;4.30;3.28;;;;;;;;;;5054726;28;20388;-56
2021/09/06 03:37:43;;;;;;;10.10;4.63;;;;;;;;;;5055533;28;20025;-55
2021/09/06 03:40:08;;;;;;;7.15;3.28;;;;;;;;;;5054841;28;20087;-55
2021/09/06 03:42:34;;;;;;;11.90;4.13;;;;;;;;;;5047737;28;20041;-55
2021/09/06 03:44:59;;;;;;;5.15;4.15;;;;;;;;;;5054727;28;20147;-54
2021/09/06 03:47:24;;;;;;;5.68;3.42;;;;;;;;;;5050584;28;20054;-55
2021/09/06 03:49:49;;;;;;;6.15;3.90;;;;;;;;;;5052914;28;20025;-55
2021/09/06 03:52:15;;;;;;;4.13;3.53;;;;;;;;;;5049421;28;20484;-54
2021/09/06 03:54:40;;;;;;;5.55;4.20;;;;;;;;;;5051195;28;20103;-52
2021/09/06 03:57:05;;;;;;;5.25;4.25;;;;;;;;;;5054387;28;20468;-55
2021/09/06 03:59:31;;;;;;;6.63;3.60;;;;;;;;;;5057229;28;20074;-55
2021/09/06 04:01:56;;;;;;;10.55;4.85;;;;;;;;;;5055338;28;20021;-55
2021/09/06 04:04:21;;;;;;;6.28;3.47;;;;;;;;;;5056685;28;20016;-55
2021/09/06 04:06:48;;;;;;;5.18;3.00;;;;;;;;;;5053681;28;20027;-55
2021/09/06 04:09:13;;;;;;;5.55;3.85;;;;;;;;;;5054126;28;20669;-52
2021/09/06 04:11:38;;;;;;;7.15;3.85;;;;;;;;;;5058792;28;20111;-56
2021/09/06 04:14:05;;;;;;;8.75;3.83;;;;;;;;;;5057124;28;20056;-55
2021/09/06 04:16:30;;;;;;;5.57;3.13;;;;;;;;;;5051968;28;20017;-55
2021/09/06 04:18:56;;;;;;;6.20;3.53;;;;;;;;;;5048340;28;20033;-54
2021/09/06 04:21:21;;;;;;;6.65;3.30;;;;;;;;;;5051697;28;20033;-53
2021/09/06 04:23:46;;;;;;;5.63;4.22;;;;;;;;;;5046134;28;20083;-55
2021/09/06 04:26:11;;;;;;;4.50;2.42;;;;;;;;;;5049873;28;20021;-56
2021/09/06 04:28:37;;;;;;;7.13;3.25;;;;;;;;;;5049578;28;20021;-56
2021/09/06 04:31:02;;;;;;;5.47;4.22;;;;;;;;;;5047680;28;20020;-57
2021/09/06 04:33:27;;;;;;;6.25;3.17;;;;;;;;;;5055156;28;20384;-55
2021/09/06 04:35:53;;;;;;;7.95;4.35;;;;;;;;;;5057350;28;20397;-53
2021/09/06 04:38:19;;;;;;;14.93;4.90;;;;;;;;;;5049129;28;20067;-55
2021/09/06 04:40:44;;;;;;;4.53;3.80;;;;;;;;;;5053674;28;20044;-55
2021/09/06 04:43:09;;;;;;;11.20;4.50;;;;;;;;;;5055121;28;20140;-55
2021/09/06 04:45:35;;;;;;;5.20;3.53;;;;;;;;;;5049032;28;20033;-56
2021/09/06 04:48:00;;;;;;;4.30;3.20;;;;;;;;;;5051890;28;20075;-55
2021/09/06 04:50:25;;;;;;;3.30;2.47;;;;;;;;;;5053745;28;20017;-55
2021/09/06 04:52:53;;;;;;;6.22;3.83;;;;;;;;;;5051959;28;20028;-55
2021/09/06 04:55:18;;;;;;;5.70;3.25;;;;;;;;;;5050944;28;20182;-55
2021/09/06 04:57:43;;;;;;;4.57;3.33;;;;;;;;;;5055428;28;20128;-56
2021/09/06 05:00:09;;;;;;;5.07;3.38;;;;;;;;;;5051015;28;20022;-56
2021/09/06 05:02:34;;;;;;;4.32;3.50;;;;;;;;;;5056044;28;20229;-56
2021/09/06 05:04:59;;;;;;;2.97;2.50;;;;;;;;;;5050394;28;20028;-55
2021/09/06 05:07:25;;;;;;;6.22;4.40;;;;;;;;;;5053733;28;20036;-56
2021/09/06 05:09:50;;;;;;;9.15;4.55;;;;;;;;;;5056360;28;20024;-56
2021/09/06 05:12:15;;;;;;;11.32;3.53;;;;;;;;;;5053507;28;20017;-56
2021/09/06 05:14:41;;;;;;;7.95;6.03;;;;;;;;;;5048623;28;20502;-56
2021/09/06 05:17:06;;;;;;;4.90;3.85;;;;;;;;;;5051277;28;20058;-56
2021/09/06 05:19:32;;;;;;;12.50;2.90;;;;;;;;;;5055061;28;20491;-55
2021/09/06 05:21:57;;;;;;;11.43;3.58;;;;;;;;;;5054948;28;20466;-57
2021/09/06 05:24:22;;;;;;;5.63;4.35;;;;;;;;;;5050438;28;20036;-56
2021/09/06 05:26:47;;;;;;;6.75;3.38;;;;;;;;;;5059604;28;20403;-56
2021/09/06 05:29:13;;;;;;;13.77;3.95;;;;;;;;;;5058323;28;20028;-56
2021/09/06 05:31:38;;;;;;;6.25;4.18;;;;;;;;;;5055832;28;20130;-56
2021/09/06 05:34:03;;;;;;;9.60;4.40;;;;;;;;;;5059634;28;20023;-56
2021/09/06 05:36:29;;;;;;;3.75;2.40;;;;;;;;;;5058141;28;20021;-56
2021/09/06 05:38:54;;;;;;;5.47;4.07;;;;;;;;;;5055361;28;20029;-56
2021/09/06 05:41:20;;;;;;;4.43;3.60;;;;;;;;;;5061531;28;20045;-56
2021/09/06 05:43:46;;;;;;;4.97;3.33;;;;;;;;;;5053777;28;20036;-56
2021/09/06 05:46:12;;;;;;;7.88;6.20;;;;;;;;;;5056926;28;20083;-56
2021/09/06 05:48:37;;;;;;;9.48;4.63;;;;;;;;;;5054170;28;20032;-56
2021/09/06 05:51:02;;;;;;;6.80;5.57;;;;;;;;;;5054736;28;20017;-56
2021/09/06 05:53:28;;;;;;;8.38;5.13;;;;;;;;;;5058373;28;20480;-56
2021/09/06 05:55:53;;;;;;;8.50;5.90;;;;;;;;;;5056383;28;20564;-56
2021/09/06 05:58:18;;;;;;;7.70;4.85;;;;;;;;;;5061716;28;20028;-55
2021/09/06 06:00:43;;;;;;;9.45;5.35;;;;;;;;;;5060190;28;20031;-56
2021/09/06 06:03:09;;;;;;;3.97;3.67;;;;;;;;;;5055701;28;20051;-56
2021/09/06 06:05:34;;;;;;;5.90;5.35;;;;;;;;;;5046731;28;20061;-55
2021/09/06 06:08:00;;;;;;;4.95;4.28;;;;;;;;;;5053819;28;20025;-48
2021/09/06 06:10:25;;;;;;;6.43;5.70;;;;;;;;;;5054234;28;20092;-48
2021/09/06 06:12:51;;;;;;;9.27;4.55;;;;;;;;;;5054957;28;20676;-47
2021/09/06 06:15:16;;;;;;;12.65;6.05;;;;;;;;;;5056089;28;20055;-50
2021/09/06 06:17:43;;;;;;;15.05;4.93;;;;;;;;;;5056577;28;20109;-52
2021/09/06 06:20:09;;;;;;;10.40;7.40;;;;;;;;;;5054103;28;20081;-48
2021/09/06 06:22:34;;;;;;;11.65;6.85;;;;;;;;;;5055514;28;20032;-49
2021/09/06 06:24:59;;;;;;;10.75;6.45;;;;;;;;;;5056025;28;20027;-51
2021/09/06 06:27:24;;;;;;;17.77;6.88;;;;;;;;;;5052280;28;20082;-49
2021/09/06 06:29:50;;;;;;;14.27;8.65;;;;;;;;;;5052424;28;20190;-49
2021/09/06 06:32:15;;;;;;;16.45;10.88;;;;;;;;;;5055379;28;20092;-52
2021/09/06 06:34:41;;;;;;;21.08;9.43;;;;;;;;;;5051588;28;20062;-49
2021/09/06 06:37:06;;;;;;;14.10;9.65;;;;;;;;;;5049230;28;20021;-52
2021/09/06 06:39:31;;;;;;;9.82;8.65;;;;;;;;;;5054607;28;20812;-51
2021/09/06 06:41:57;;;;;;;13.88;10.35;;;;;;;;;;5054433;28;20037;-49
2021/09/06 06:44:22;;;;;;;15.25;8.90;;;;;;;;;;5054331;28;20032;-50
2021/09/06 06:46:47;;;;;;;10.13;9.10;;;;;;;;;;5056910;28;20603;-51
2021/09/06 06:49:13;;;;;;;15.82;8.50;;;;;;;;;;5051436;28;20170;-52
2021/09/06 06:51:38;;;;;;;21.90;10.05;;;;;;;;;;5051962;28;20103;-50
2021/09/06 06:54:05;;;;;;;23.92;12.32;;;;;;;;;;5057307;28;20112;-53
2021/09/06 06:56:30;;;;;;;25.83;22.17;;;;;;;;;;5052237;28;20028;-51
2021/09/06 06:58:55;;;;;;;13.18;6.43;;;;;;;;;;5051012;28;20021;-51
2021/09/06 07:01:20;;;;;;;13.60;5.88;;;;;;;;;;5054780;28;20025;-51
2021/09/06 07:03:46;;;;;;;7.05;6.35;;;;;;;;;;5051763;28;20440;-52
2021/09/06 07:06:11;;;;;;;8.57;5.32;;;;;;;;;;5054732;28;20040;-52
2021/09/06 07:08:37;;;;;;;6.13;5.50;;;;;;;;;;5053572;28;20016;-47
2021/09/06 07:11:02;;;;;;;7.93;6.38;;;;;;;;;;5051756;28;20116;-50
2021/09/06 07:13:27;;;;;;;9.68;8.55;;;;;;;;;;5058436;28;20666;-53
2021/09/06 07:15:53;;;;;;;24.02;13.05;;;;;;;;;;5051636;28;20013;-50
2021/09/06 07:18:18;;;;;;;9.98;7.82;;;;;;;;;;5052967;28;20439;-55
2021/09/06 07:20:43;;;;;;;17.88;14.20;;;;;;;;;;5053485;28;20062;-50
2021/09/06 07:23:08;;;;;;;23.08;20.73;;;;;;;;;;5053340;28;20031;-52
2021/09/06 07:25:34;;;;;;;25.08;22.00;;;;;;;;;;5054371;28;20467;-54
2021/09/06 07:27:59;;;;;;;37.08;26.88;;;;;;;;;;5056752;28;20029;-52
2021/09/06 07:30:24;;;;;;;30.70;27.70;;;;;;;;;;5054527;28;20052;-63
2021/09/06 07:32:51;;;;;;;36.78;26.55;;;;;;;;;;5055779;28;20026;-64
2021/09/06 07:35:16;;;;;;;21.42;18.15;;;;;;;;;;5053410;28;20027;-64
2021/09/06 07:37:41;;;;;;;19.63;17.38;;;;;;;;;;5057593;28;20013;-66
2021/09/06 07:40:10;;;;;;;21.83;18.90;;;;;;;;;;5056107;28;20053;-65
2021/09/06 07:42:35;;;;;;;18.38;16.58;;;;;;;;;;5051718;28;20048;-67
2021/09/06 07:45:01;;;;;;;18.95;15.00;;;;;;;;;;5057626;28;20067;-63
2021/09/06 07:47:26;;;;;;;26.60;23.92;;;;;;;;;;5055773;28;20021;-64
2021/09/06 07:49:51;;;;;;;31.92;28.67;;;;;;;;;;5051222;28;20480;-64
2021/09/06 07:52:17;;;;;;;27.80;25.00;;;;;;;;;;5053579;28;20461;-65
2021/09/06 07:54:42;;;;;;;31.80;19.73;;;;;;;;;;5055955;28;20100;-65
2021/09/06 07:57:07;;;;;;;19.92;17.85;;;;;;;;;;5055181;28;20439;-65
2021/09/06 07:59:33;;;;;;;27.17;17.95;;;;;;;;;;5052716;28;20028;-65
2021/09/06 08:01:58;;;;;;;23.65;19.92;;;;;;;;;;5053201;28;20493;-62
2021/09/06 08:04:26;;;;;;;32.83;22.88;;;;;;;;;;5055903;28;20028;-62
2021/09/06 08:06:51;;;;;;;49.25;43.78;;;;;;;;;;5051185;28;20074;-62
2021/09/06 08:09:16;;;;;;;58.55;52.42;;;;;;;;;;5052800;28;20033;-62
2021/09/06 08:11:45;;;;;;;43.92;39.70;;;;;;;;;;5047808;28;20020;-62
2021/09/06 08:14:11;;;;;;;11.05;10.05;;;;;;;;;;5050520;28;20037;-62
2021/09/06 08:16:36;;;;;;;10.68;8.40;;;;;;;;;;5055272;28;20392;-62
2021/09/06 08:19:01;;;;;;;12.20;8.60;;;;;;;;;;5052829;28;20044;-62
2021/09/06 08:21:27;;;;;;;10.20;6.70;;;;;;;;;;5055489;28;20476;-62
2021/09/06 08:23:53;;;;;;;21.40;8.30;;;;;;;;;;5055543;28;20021;-62
2021/09/06 08:26:20;;;;;;;12.75;5.72;;;;;;;;;;5056460;28;20142;-63
2021/09/06 08:28:48;;;;;;;13.20;8.02;;;;;;;;;;5057320;28;20448;-61
2021/09/06 08:31:14;;;;;;;7.50;5.28;;;;;;;;;;5053976;28;20480;-61
2021/09/06 08:33:42;;;;;;;9.43;6.07;;;;;;;;;;5049575;28;20052;-61
2021/09/06 08:36:09;;;;;;;6.07;5.35;;;;;;;;;;5051886;28;20046;-61
2021/09/06 08:38:35;;;;;;;8.30;4.68;;;;;;;;;;5054637;28;20024;-63
2021/09/06 08:41:00;;;;;;;11.25;5.78;;;;;;;;;;5054595;28;20638;-63
2021/09/06 08:43:27;;;;;;;4.95;4.38;;;;;;;;;;5053268;28;20102;-64
2021/09/06 08:45:52;;;;;;;6.03;3.95;;;;;;;;;;5049379;28;20025;-64
2021/09/06 08:48:18;;;;;;;11.05;4.95;;;;;;;;;;5057538;28;20025;-61
2021/09/06 08:50:43;;;;;;;4.43;3.45;;;;;;;;;;5052979;28;20017;-63
2021/09/06 08:53:09;;;;;;;14.88;5.13;;;;;;;;;;5054215;28;20103;-63
2021/09/06 08:55:35;;;;;;;7.82;5.22;;;;;;;;;;5052279;28;20392;-63
2021/09/06 08:58:00;;;;;;;7.05;3.42;;;;;;;;;;5050329;28;20024;-64
2021/09/06 09:00:27;;;;;;;8.45;6.13;;;;;;;;;;5051903;28;20604;-64
2021/09/06 09:02:52;;;;;;;9.98;7.53;;;;;;;;;;5054180;28;20476;-63
2021/09/06 09:05:17;;;;;;;9.63;4.68;;;;;;;;;;5046379;28;20029;-63
2021/09/06 09:07:44;;;;;;;12.90;3.80;;;;;;;;;;5046701;28;20357;-63
2021/09/06 09:10:11;;;;;;;5.20;3.38;;;;;;;;;;5053320;28;20091;-64
2021/09/06 09:12:37;;;;;;;2.33;1.83;;;;;;;;;;5054880;28;20044;-63
2021/09/06 09:15:03;;;;;;;8.55;3.83;;;;;;;;;;5051414;28;20028;-65
2021/09/06 09:17:28;;;;;;;6.43;3.20;;;;;;;;;;5055267;28;20107;-63
2021/09/06 09:19:54;;;;;;;4.00;3.15;;;;;;;;;;5050627;28;20021;-63
2021/09/06 09:22:39;;;;;;;2.33;1.83;;;;;;;;;;5051517;28;20083;-63
2021/09/06 09:25:06;;;;;;;5.97;2.50;;;;;;;;;;5044742;28;20021;-63
2021/09/06 09:27:33;;;;;;;7.60;1.83;;;;;;;;;;5051022;28;20137;-65
2021/09/06 09:29:58;;;;;;;6.35;3.15;;;;;;;;;;5049206;28;20017;-63
2021/09/06 09:32:24;;;;;;;12.27;4.20;;;;;;;;;;5052770;28;20021;-62
2021/09/06 09:34:49;;;;;;;5.38;2.97;;;;;;;;;;5051091;28;20047;-61
2021/09/06 09:37:22;;;;;;;3.22;2.13;;;;;;;;;;5050068;28;20028;-62
2021/09/06 09:39:52;;;;;;;4.95;3.40;;;;;;;;;;5052666;28;20538;-62
2021/09/06 09:42:17;;;;;;;6.88;3.78;;;;;;;;;;5048139;28;20052;-62
2021/09/06 09:44:47;;;;;;;32.80;4.07;;;;;;;;;;5051082;28;20022;-63
2021/09/06 09:47:12;;;;;;;4.77;3.17;;;;;;;;;;5047795;28;20020;-62
2021/09/06 09:49:38;;;;;;;3.97;2.83;;;;;;;;;;5052139;28;20075;-62
2021/09/06 09:52:04;;;;;;;4.15;2.75;;;;;;;;;;5051818;28;20047;-63
2021/09/06 09:54:30;;;;;;;3.50;1.80;;;;;;;;;;5050983;28;20078;-62
2021/09/06 09:56:55;;;;;;;4.88;4.13;;;;;;;;;;5051417;28;20020;-62
2021/09/06 09:59:20;;;;;;;4.75;2.90;;;;;;;;;;5055645;28;20028;-63
2021/09/06 10:01:52;;;;;;;7.90;3.53;;;;;;;;;;5052431;28;20024;-62
2021/09/06 10:04:20;;;;;;;5.53;3.05;;;;;;;;;;5049906;28;20029;-63
2021/09/06 10:06:45;;;;;;;3.53;2.58;;;;;;;;;;5053029;28;20102;-62
2021/09/06 10:09:12;;;;;;;7.78;4.40;;;;;;;;;;5050759;28;20028;-63
2021/09/06 10:11:38;;;;;;;2.70;2.13;;;;;;;;;;5050934;28;20039;-62
2021/09/06 10:14:20;;;;;;;5.88;4.03;;;;;;;;;;5054610;28;20035;-63
2021/09/06 10:16:59;;;;;;;12.60;4.68;;;;;;;;;;5051038;28;20059;-63
2021/09/06 10:19:36;;;;;;;2.83;1.65;;;;;;;;;;5055293;28;20044;-63
2021/09/06 10:22:01;;;;;;;11.57;3.72;;;;;;;;;;5054932;28;20087;-63
2021/09/06 10:24:27;;;;;;;2.90;2.58;;;;;;;;;;5059293;28;20609;-63
2021/09/06 10:27:01;;;;;;;3.70;2.58;;;;;;;;;;5060649;28;20100;-63
2021/09/06 10:29:27;;;;;;;4.47;3.13;;;;;;;;;;5054002;28;20035;-62
2021/09/06 10:32:02;;;;;;;4.82;3.88;;;;;;;;;;5055335;28;20029;-62
2021/09/06 10:34:29;;;;;;;2.50;2.10;;;;;;;;;;5052544;28;20039;-63
2021/09/06 10:36:55;;;;;;;5.25;2.28;;;;;;;;;;5052076;28;20407;-64
2021/09/06 10:39:21;;;;;;;3.22;2.38;;;;;;;;;;5049779;28;20567;-64
2021/09/06 10:41:48;;;;;;;2.50;1.60;;;;;;;;;;5056198;28;20128;-62
2021/09/06 10:44:13;;;;;;;2.10;1.38;;;;;;;;;;5050157;28;20036;-63
2021/09/06 10:46:39;;;;;;;7.82;3.15;;;;;;;;;;5047761;28;20054;-63
2021/09/06 10:49:05;;;;;;;6.63;2.45;;;;;;;;;;5055407;28;20472;-62
2021/09/06 10:51:32;;;;;;;12.93;2.83;;;;;;;;;;5055943;28;20075;-62
2021/09/06 10:53:59;;;;;;;6.40;4.20;;;;;;;;;;5053057;28;20024;-62
2021/09/06 10:56:25;;;;;;;8.07;3.75;;;;;;;;;;5056251;28;20118;-62
2021/09/06 10:58:51;;;;;;;11.40;2.38;;;;;;;;;;5053256;28;20444;-62
2021/09/06 11:01:17;;;;;;;5.70;2.95;;;;;;;;;;5056392;28;20024;-62
2021/09/06 11:03:42;;;;;;;4.93;2.88;;;;;;;;;;5049963;28;20044;-62
2021/09/06 11:06:08;;;;;;;5.15;1.23;;;;;;;;;;5051829;28;20029;-62
2021/09/06 11:08:37;;;;;;;5.40;2.67;;;;;;;;;;5052008;28;20027;-62
2021/09/06 11:11:04;;;;;;;3.58;1.83;;;;;;;;;;5053862;28;20052;-62
2021/09/06 11:13:36;;;;;;;9.93;2.00;;;;;;;;;;5049818;28;20112;-62
2021/09/06 11:16:07;;;;;;;2.70;1.50;;;;;;;;;;5056678;28;20028;-62
2021/09/06 11:18:33;;;;;;;3.20;2.00;;;;;;;;;;5052618;28;20032;-62
2021/09/06 11:20:58;;;;;;;6.72;1.85;;;;;;;;;;5053934;28;20108;-62
2021/09/06 11:23:31;;;;;;;13.00;3.65;;;;;;;;;;5050349;28;20147;-62
2021/09/06 11:25:57;;;;;;;9.93;3.03;;;;;;;;;;5053754;28;20477;-62
2021/09/06 11:28:23;;;;;;;3.75;2.17;;;;;;;;;;5048950;28;20033;-60
2021/09/06 11:30:48;;;;;;;10.07;2.33;;;;;;;;;;5051403;28;20032;-60
2021/09/06 11:33:14;;;;;;;5.30;2.13;;;;;;;;;;5052521;28;20691;-59
2021/09/06 11:35:46;;;;;;;3.10;2.28;;;;;;;;;;5055282;28;20027;-60
2021/09/06 11:38:13;;;;;;;3.15;1.77;;;;;;;;;;5054686;28;20032;-60
2021/09/06 11:40:40;;;;;;;3.67;1.45;;;;;;;;;;5048924;28;20123;-60
2021/09/06 11:43:05;;;;;;;5.97;3.22;;;;;;;;;;5053241;28;20032;-60
2021/09/06 11:45:31;;;;;;;6.55;1.73;;;;;;;;;;5049150;28;20417;-61
2021/09/06 11:48:01;;;;;;;9.05;3.15;;;;;;;;;;5049476;28;20028;-61
2021/09/06 11:50:31;;;;;;;2.83;2.30;;;;;;;;;;5050790;28;20112;-61
2021/09/06 11:53:00;;;;;;;4.05;2.08;;;;;;;;;;5055557;28;20033;-61
2021/09/06 11:55:26;;;;;;;5.97;3.43;;;;;;;;;;5049077;28;20068;-61
2021/09/06 11:57:51;;;;;;;3.58;2.35;;;;;;;;;;5054562;28;20475;-61
2021/09/06 12:00:18;;;;;;;3.67;1.70;;;;;;;;;;5047574;28;20079;-61
2021/09/06 12:02:48;;;;;;;3.50;2.47;;;;;;;;;;5054459;28;20021;-61
2021/09/06 12:05:15;;;;;;;4.65;1.55;;;;;;;;;;5051962;28;20373;-61
2021/09/06 12:07:47;;;;;;;4.32;2.72;;;;;;;;;;5048903;28;20017;-61
2021/09/06 12:10:33;;;;;;;3.45;2.30;;;;;;;;;;5051359;28;20112;-61
2021/09/06 12:13:01;;;;;;;3.60;2.53;;;;;;;;;;5048459;28;20032;-61
2021/09/06 12:15:28;;;;;;;3.42;1.75;;;;;;;;;;5051172;28;20024;-61
2021/09/06 12:18:04;;;;;;;3.28;2.28;;;;;;;;;;5050949;28;20084;-61
2021/09/06 12:20:29;;;;;;;5.13;2.40;;;;;;;;;;5050213;28;20025;-61
2021/09/06 12:22:55;;;;;;;6.18;2.15;;;;;;;;;;5056054;28;20704;-62
2021/09/06 12:25:23;;;;;;;8.95;1.80;;;;;;;;;;5055417;28;20021;-61
2021/09/06 12:27:48;;;;;;;6.93;2.42;;;;;;;;;;5053634;28;20035;-62
2021/09/06 12:30:13;;;;;;;7.78;2.13;;;;;;;;;;5052031;28;20476;-61
2021/09/06 12:32:40;;;;;;;6.55;1.58;;;;;;;;;;5052246;28;20025;-61
2021/09/06 12:35:05;;;;;;;3.08;2.13;;;;;;;;;;5050827;28;20516;-62
2021/09/06 12:37:30;;;;;;;3.47;1.95;;;;;;;;;;5051829;28;20017;-62
2021/09/06 12:39:57;;;;;;;4.50;1.92;;;;;;;;;;5053916;28;20028;-62
2021/09/06 12:42:23;;;;;;;6.85;3.00;;;;;;;;;;5052233;28;20124;-61
2021/09/06 12:44:48;;;;;;;4.63;2.00;;;;;;;;;;5046227;28;20128;-62
2021/09/06 12:47:13;;;;;;;3.45;1.27;;;;;;;;;;5048925;28;20099;-62
2021/09/06 12:49:39;;;;;;;3.78;2.58;;;;;;;;;;5047260;28;20377;-62
2021/09/06 12:52:04;;;;;;;8.48;3.10;;;;;;;;;;5049304;28;20051;-62
2021/09/06 12:54:29;;;;;;;8.43;3.17;;;;;;;;;;5050677;28;20020;-62
2021/09/06 12:56:57;;;;;;;2.75;1.75;;;;;;;;;;5052314;28;20112;-62
2021/09/06 12:59:23;;;;;;;7.45;1.63;;;;;;;;;;5051641;28;20017;-62
2021/09/06 13:01:50;;;;;;;8.88;2.15;;;;;;;;;;5052320;28;20114;-62
2021/09/06 13:04:15;;;;;;;8.50;2.95;;;;;;;;;;5050964;28;20476;-64
2021/09/06 13:06:40;;;;;;;4.55;2.00;;;;;;;;;;5048681;28;20019;-66
2021/09/06 13:09:06;;;;;;;9.52;6.70;;;;;;;;;;5055113;28;20490;-66
2021/09/06 13:11:31;;;;;;;4.50;2.80;;;;;;;;;;5050656;28;20528;-61
2021/09/06 13:13:56;;;;;;;2.20;1.50;;;;;;;;;;5052672;28;20044;-61
2021/09/06 13:16:22;;;;;;;3.75;1.80;;;;;;;;;;5044522;28;20021;-61
2021/09/06 13:18:47;;;;;;;1.75;1.33;;;;;;;;;;5051892;28;20013;-62
2021/09/06 13:21:12;;;;;;;4.38;3.58;;;;;;;;;;5052367;28;20024;-62
2021/09/06 13:23:38;;;;;;;17.27;3.17;;;;;;;;;;5048945;28;20025;-64
2021/09/06 13:26:11;;;;;;;6.65;1.98;;;;;;;;;;5052568;28;20123;-61
2021/09/06 13:28:36;;;;;;;21.67;4.07;;;;;;;;;;5052507;28;20036;-62
2021/09/06 13:31:01;;;;;;;4.90;1.70;;;;;;;;;;5050548;28;20016;-61
2021/09/06 13:33:26;;;;;;;5.97;1.83;;;;;;;;;;5055339;28;20037;-61
2021/09/06 13:35:52;;;;;;;2.55;1.65;;;;;;;;;;5053417;28;20115;-62
2021/09/06 13:38:17;;;;;;;3.10;1.65;;;;;;;;;;5050734;28;20111;-63
2021/09/06 13:40:42;;;;;;;3.47;1.98;;;;;;;;;;5047473;28;20069;-63
2021/09/06 13:43:08;;;;;;;6.65;1.95;;;;;;;;;;5053244;28;20017;-63
2021/09/06 13:45:33;;;;;;;3.05;1.98;;;;;;;;;;5053000;28;20718;-64
2021/09/06 13:47:58;;;;;;;5.38;1.95;;;;;;;;;;5057565;28;20546;-62
2021/09/06 13:50:23;;;;;;;5.05;2.55;;;;;;;;;;5052287;28;20052;-63
2021/09/06 13:52:49;;;;;;;6.32;3.60;;;;;;;;;;5053455;28;20121;-62
2021/09/06 13:55:14;;;;;;;5.07;2.80;;;;;;;;;;5057946;28;20884;-64
2021/09/06 13:57:39;;;;;;;2.95;1.77;;;;;;;;;;5057805;28;20012;-63
2021/09/06 14:00:05;;;;;;;6.97;2.80;;;;;;;;;;5057343;28;20552;-63
2021/09/06 14:02:32;;;;;;;3.28;1.92;;;;;;;;;;5053067;28;20431;-63
2021/09/06 14:04:57;;;;;;;3.63;2.33;;;;;;;;;;5050587;28;20100;-63
2021/09/06 14:07:23;;;;;;;6.25;2.58;;;;;;;;;;5054904;28;20104;-63
2021/09/06 14:09:48;;;;;;;4.03;2.55;;;;;;;;;;5055629;28;20028;-63
2021/09/06 14:12:14;;;;;;;4.05;1.70;;;;;;;;;;5057788;28;20078;-63
2021/09/06 14:14:40;;;;;;;6.68;3.47;;;;;;;;;;5053067;28;20100;-64
2021/09/06 14:17:05;;;;;;;1.88;1.20;;;;;;;;;;5052098;28;20065;-60
2021/09/06 14:19:31;;;;;;;4.43;2.15;;;;;;;;;;5057495;28;20020;-62
2021/09/06 14:21:56;;;;;;;3.45;2.08;;;;;;;;;;5055397;28;20039;-63
2021/09/06 14:24:21;;;;;;;2.83;2.30;;;;;;;;;;5051417;28;20053;-62
2021/09/06 14:26:46;;;;;;;5.47;2.00;;;;;;;;;;5051792;28;20027;-67
2021/09/06 14:29:12;;;;;;;2.45;1.83;;;;;;;;;;5057603;28;20498;-67
2021/09/06 14:31:38;;;;;;;6.93;2.90;;;;;;;;;;5054818;28;20112;-66